createdAt,value
2022-11-16T00:01:00.973Z,83.30
2022-11-16T00:03:29.597Z,83.12
2022-11-16T00:05:57.933Z,83.11
2022-11-16T00:08:25.755Z,83.23
2022-11-16T00:10:53.914Z,82.95
2022-11-16T00:13:21.492Z,82.94
2022-11-16T00:15:57.253Z,82.79
2022-11-16T00:18:25.229Z,83.02
2022-11-16T00:20:53.081Z,83.07
2022-11-16T00:23:20.699Z,83.34
2022-11-16T00:25:48.275Z,83.35
2022-11-16T00:28:17.096Z,83.48
2022-11-16T00:30:44.977Z,83.04
2022-11-16T00:33:15.928Z,83.28
2022-11-16T00:35:43.779Z,83.55
2022-11-16T00:38:11.364Z,83.29
2022-11-16T00:40:39.220Z,83.60
2022-11-16T00:43:06.870Z,83.23
2022-11-16T00:45:34.646Z,83.16
2022-11-16T00:48:02.458Z,83.43
2022-11-16T00:50:31.549Z,83.32
2022-11-16T00:52:59.295Z,83.22
2022-11-16T00:55:26.983Z,83.04
2022-11-16T00:57:54.669Z,83.02
2022-11-16T01:00:22.582Z,83.17
2022-11-16T01:02:50.344Z,83.10
2022-11-16T01:05:18.355Z,83.43
2022-11-16T01:07:47.403Z,83.23
2022-11-16T01:10:21.402Z,83.09
2022-11-16T01:12:50.184Z,83.09
2022-11-16T01:15:18.931Z,83.19
2022-11-16T01:17:46.722Z,83.49
2022-11-16T01:20:16.283Z,83.56
2022-11-16T01:22:44.748Z,83.80
2022-11-16T01:25:17.247Z,83.76
2022-11-16T01:27:45.626Z,83.53
2022-11-16T01:30:15.080Z,83.56
2022-11-16T01:32:42.842Z,83.62
2022-11-16T01:35:11.977Z,84.05
2022-11-16T01:37:39.537Z,84.40
2022-11-16T01:40:08.526Z,84.08
2022-11-16T01:42:37.723Z,84.20
2022-11-16T01:45:18.463Z,84.18
2022-11-16T01:47:46.384Z,83.86
2022-11-16T01:50:16.448Z,83.96
2022-11-16T01:52:48.643Z,83.98
2022-11-16T01:55:17.800Z,84.51
2022-11-16T01:57:47.894Z,84.72
2022-11-16T02:00:17.350Z,84.73
2022-11-16T02:02:45.015Z,84.33
2022-11-16T02:08:32.495Z,84.75
2022-11-16T02:11:12.586Z,84.82
2022-11-16T02:13:48.359Z,84.96
2022-11-16T02:16:31.425Z,85.13
2022-11-16T02:19:03.421Z,85.36
2022-11-16T02:21:42.721Z,85.16
2022-11-16T02:24:21.227Z,84.94
2022-11-16T02:26:58.818Z,85.16
2022-11-16T02:29:30.494Z,85.23
2022-11-16T02:32:02.814Z,85.21
2022-11-16T02:34:31.861Z,85.18
2022-11-16T02:36:59.951Z,85.42
2022-11-16T02:39:28.667Z,85.21
2022-11-16T02:41:57.668Z,85.48
2022-11-16T02:44:30.406Z,85.80
2022-11-16T02:47:00.160Z,85.50
2022-11-16T02:49:29.340Z,85.76
2022-11-16T02:51:57.732Z,85.92
2022-11-16T02:54:25.801Z,85.77
2022-11-16T02:56:56.579Z,85.84
2022-11-16T02:59:26.585Z,85.67
2022-11-16T03:02:00.651Z,85.61
2022-11-16T03:04:31.555Z,85.41
2022-11-16T03:06:59.616Z,85.57
2022-11-16T03:09:29.667Z,85.28
2022-11-16T03:12:02.934Z,85.32
2022-11-16T03:14:35.191Z,85.17
2022-11-16T03:17:04.768Z,85.21
2022-11-16T03:19:35.674Z,85.42
2022-11-16T03:22:08.703Z,85.20
2022-11-16T03:24:36.789Z,85.38
2022-11-16T03:27:07.709Z,85.17
2022-11-16T03:29:41.192Z,85.08
2022-11-16T03:32:14.190Z,85.12
2022-11-16T03:34:45.188Z,85.42
2022-11-16T03:37:13.818Z,85.72
2022-11-16T03:39:42.583Z,85.23
2022-11-16T03:42:13.998Z,85.32
2022-11-16T03:44:42.315Z,84.95
2022-11-16T03:47:11.379Z,84.95
2022-11-16T03:49:38.972Z,85.21
2022-11-16T03:52:06.737Z,84.52
2022-11-16T03:54:34.553Z,84.58
2022-11-16T03:57:02.376Z,84.59
2022-11-16T03:59:29.879Z,84.45
2022-11-16T04:01:57.620Z,84.54
2022-11-16T04:04:44.037Z,83.71
2022-11-16T04:07:44.006Z,84.28
2022-11-16T04:10:29.650Z,83.99
2022-11-16T04:13:16.034Z,83.99
2022-11-16T04:16:01.583Z,83.90
2022-11-16T04:18:46.775Z,83.91
2022-11-16T04:21:36.929Z,84.03
2022-11-16T04:24:13.840Z,83.83
2022-11-16T04:27:00.229Z,83.62
2022-11-16T04:29:28.118Z,83.93
2022-11-16T04:32:13.512Z,83.70
2022-11-16T04:34:58.191Z,83.38
2022-11-16T04:37:44.690Z,83.61
2022-11-16T04:40:14.999Z,83.39
2022-11-16T04:42:42.579Z,83.52
2022-11-16T04:45:28.446Z,84.33
2022-11-16T04:47:56.015Z,83.94
2022-11-16T04:50:23.574Z,83.90
2022-11-16T04:52:52.742Z,83.96
2022-11-16T04:55:20.543Z,83.80
2022-11-16T04:57:48.327Z,83.53
2022-11-16T05:00:17.107Z,84.07
2022-11-16T05:02:44.893Z,83.53
2022-11-16T05:05:12.866Z,83.52
2022-11-16T05:07:40.638Z,83.53
2022-11-16T05:10:10.562Z,83.51
2022-11-16T05:12:38.490Z,83.40
2022-11-16T05:15:08.253Z,83.52
2022-11-16T05:17:44.857Z,83.55
2022-11-16T05:20:30.501Z,83.24
2022-11-16T05:22:59.451Z,83.48
2022-11-16T05:25:32.506Z,83.72
2022-11-16T05:28:03.493Z,83.21
2022-11-16T05:30:31.403Z,83.00
2022-11-16T05:32:59.272Z,83.03
2022-11-16T05:35:27.195Z,83.25
2022-11-16T05:37:54.746Z,83.33
2022-11-16T05:40:22.780Z,83.37
2022-11-16T05:42:51.960Z,83.18
2022-11-16T05:45:21.163Z,83.17
2022-11-16T05:47:49.118Z,83.11
2022-11-16T05:50:17.461Z,83.69
2022-11-16T05:52:45.002Z,83.59
2022-11-16T05:55:12.701Z,83.45
2022-11-16T05:57:40.533Z,84.04
2022-11-16T06:00:11.698Z,83.99
2022-11-16T06:02:39.357Z,83.61
2022-11-16T06:05:08.568Z,83.48
2022-11-16T06:07:36.361Z,83.78
2022-11-16T06:10:04.278Z,83.71
2022-11-16T06:12:32.098Z,83.90
2022-11-16T06:14:59.671Z,83.55
2022-11-16T06:17:28.770Z,84.09
2022-11-16T06:19:56.528Z,83.64
2022-11-16T06:22:24.183Z,83.53
2022-11-16T06:24:51.740Z,83.60
2022-11-16T06:27:19.616Z,83.92
2022-11-16T06:29:47.371Z,84.09
2022-11-16T06:32:15.489Z,84.39
2022-11-16T06:34:44.483Z,84.04
2022-11-16T06:37:12.323Z,83.85
2022-11-16T06:39:40.178Z,83.87
2022-11-16T06:42:08.377Z,84.42
2022-11-16T06:44:36.935Z,83.99
2022-11-16T06:47:04.990Z,84.26
2022-11-16T06:49:32.736Z,84.52
2022-11-16T06:52:01.902Z,84.16
2022-11-16T06:54:29.413Z,84.70
2022-11-16T06:56:57.186Z,84.77
2022-11-16T06:59:24.883Z,84.38
2022-11-16T07:01:52.951Z,84.13
2022-11-16T07:04:20.859Z,84.00
2022-11-16T07:06:48.602Z,83.99
2022-11-16T07:09:17.839Z,84.34
2022-11-16T07:11:45.570Z,84.45
2022-11-16T07:14:13.432Z,84.94
2022-11-16T07:16:40.994Z,84.66
2022-11-16T07:19:10.165Z,84.36
2022-11-16T07:21:38.663Z,84.69
2022-11-16T07:24:06.454Z,84.33
2022-11-16T07:26:35.894Z,84.33
2022-11-16T07:29:03.691Z,84.31
2022-11-16T07:31:31.781Z,84.48
2022-11-16T07:33:59.574Z,85.00
2022-11-16T07:36:27.288Z,84.41
2022-11-16T07:38:55.224Z,84.60
2022-11-16T07:41:23.037Z,84.78
2022-11-16T07:43:53.393Z,85.11
2022-11-16T07:49:15.542Z,84.69
2022-11-16T07:51:43.480Z,84.74
2022-11-16T07:54:13.008Z,84.68
2022-11-16T07:56:40.993Z,84.81
2022-11-16T07:59:11.917Z,84.93
2022-11-16T08:01:41.202Z,84.48
2022-11-16T08:04:09.137Z,84.41
2022-11-16T08:06:37.841Z,84.52
2022-11-16T08:09:10.528Z,84.36
2022-11-16T08:11:38.279Z,84.63
2022-11-16T08:14:06.151Z,84.46
2022-11-16T08:16:35.458Z,84.40
2022-11-16T08:19:03.447Z,84.22
2022-11-16T08:21:31.187Z,84.46
2022-11-16T08:23:59.281Z,84.52
2022-11-16T08:26:27.559Z,84.64
2022-11-16T08:28:58.467Z,84.60
2022-11-16T08:31:27.718Z,84.03
2022-11-16T08:33:57.657Z,84.10
2022-11-16T08:36:25.407Z,83.71
2022-11-16T08:38:53.888Z,84.15
2022-11-16T08:41:22.514Z,84.12
2022-11-16T08:43:53.521Z,84.73
2022-11-16T08:46:21.942Z,84.68
2022-11-16T08:48:50.043Z,84.62
2022-11-16T08:51:20.745Z,84.54
2022-11-16T08:53:49.433Z,84.71
2022-11-16T08:56:18.535Z,84.91
2022-11-16T08:58:47.218Z,84.50
2022-11-16T09:01:16.805Z,85.02
2022-11-16T09:03:45.342Z,85.01
2022-11-16T09:06:14.183Z,85.32
2022-11-16T09:08:44.696Z,85.35
2022-11-16T09:11:14.820Z,85.16
2022-11-16T09:13:42.633Z,85.44
2022-11-16T09:16:10.545Z,85.20
2022-11-16T09:18:38.987Z,84.98
2022-11-16T09:21:06.961Z,84.77
2022-11-16T09:23:34.933Z,84.92
2022-11-16T09:26:05.766Z,84.80
2022-11-16T09:28:34.043Z,84.96
2022-11-16T09:31:04.017Z,84.60
2022-11-16T09:33:33.058Z,84.56
2022-11-16T09:36:07.200Z,84.13
2022-11-16T09:38:55.733Z,84.33
2022-11-16T09:41:37.445Z,83.72
2022-11-16T09:44:12.946Z,83.53
2022-11-16T09:46:44.334Z,83.50
2022-11-16T09:49:17.659Z,83.18
2022-11-16T09:51:48.903Z,83.68
2022-11-16T09:54:19.519Z,83.78
2022-11-16T09:56:50.298Z,83.18
2022-11-16T09:59:23.015Z,82.88
2022-11-16T10:01:54.050Z,82.64
2022-11-16T10:04:25.956Z,82.33
2022-11-16T10:06:57.206Z,82.70
2022-11-16T10:09:25.887Z,82.38
2022-11-16T10:12:03.168Z,82.05
2022-11-16T10:15:13.776Z,81.80
2022-11-16T10:17:53.473Z,81.94
2022-11-16T10:20:38.540Z,81.52
2022-11-16T10:23:10.260Z,81.57
2022-11-16T10:25:44.182Z,81.24
2022-11-16T10:28:35.174Z,80.79
2022-11-16T10:31:08.348Z,81.29
2022-11-16T10:33:38.031Z,81.18
2022-11-16T10:36:10.030Z,81.31
2022-11-16T10:38:38.007Z,81.35
2022-11-16T10:41:16.162Z,81.36
2022-11-16T10:43:46.560Z,81.71
2022-11-16T10:46:19.558Z,81.65
2022-11-16T10:48:56.276Z,81.47
2022-11-16T10:51:24.328Z,81.71
2022-11-16T10:53:53.306Z,80.64
2022-11-16T10:56:25.136Z,79.81
2022-11-16T10:58:56.899Z,80.00
2022-11-16T11:01:37.423Z,79.12
2022-11-16T11:04:19.508Z,79.14
2022-11-16T11:06:48.455Z,79.08
2022-11-16T11:09:23.049Z,78.88
2022-11-16T11:12:17.068Z,79.44
2022-11-16T11:14:59.848Z,79.23
2022-11-16T11:17:27.735Z,78.88
2022-11-16T11:20:00.642Z,79.02
2022-11-16T11:22:38.423Z,78.75
2022-11-16T11:25:07.944Z,79.25
2022-11-16T11:27:36.872Z,79.07
2022-11-16T11:30:15.173Z,79.40
2022-11-16T11:32:44.647Z,78.86
2022-11-16T11:35:24.257Z,79.18
2022-11-16T11:37:54.847Z,79.33
2022-11-16T11:40:25.345Z,79.51
2022-11-16T11:43:00.022Z,79.86
2022-11-16T11:45:48.562Z,79.88
2022-11-16T11:48:26.362Z,79.90
2022-11-16T11:50:55.546Z,79.13
2022-11-16T11:53:35.741Z,79.21
2022-11-16T11:56:04.470Z,78.97
2022-11-16T11:58:34.581Z,79.16
2022-11-16T12:01:25.930Z,79.16
2022-11-16T12:04:12.923Z,79.02
2022-11-16T12:06:45.522Z,79.10
2022-11-16T12:09:24.065Z,78.91
2022-11-16T12:12:02.240Z,78.72
2022-11-16T12:14:41.710Z,79.36
2022-11-16T12:17:16.938Z,78.81
2022-11-16T12:20:06.042Z,78.70
2022-11-16T12:22:49.358Z,78.45
2022-11-16T12:25:25.171Z,78.63
2022-11-16T12:28:11.149Z,78.68
2022-11-16T12:30:45.493Z,78.73
2022-11-16T12:33:25.750Z,78.93
2022-11-16T12:35:58.019Z,78.02
2022-11-16T12:38:37.113Z,77.88
2022-11-16T12:41:31.685Z,78.03
2022-11-16T12:44:01.302Z,77.80
2022-11-16T12:46:39.022Z,78.00
2022-11-16T12:49:28.478Z,78.61
2022-11-16T12:52:06.234Z,77.96
2022-11-16T12:55:24.194Z,78.62
2022-11-16T12:57:49.694Z,78.38
2022-11-16T13:00:22.464Z,78.81
2022-11-16T13:03:09.375Z,78.33
2022-11-16T13:05:46.806Z,78.24
2022-11-16T13:08:20.943Z,78.06
2022-11-16T13:10:50.789Z,78.28
2022-11-16T13:13:40.883Z,77.87
2022-11-16T13:16:11.166Z,78.00
2022-11-16T13:18:42.603Z,78.13
2022-11-16T13:21:20.471Z,78.05
2022-11-16T13:23:55.511Z,77.71
2022-11-16T13:26:31.258Z,77.90
2022-11-16T13:29:07.160Z,78.15
2022-11-16T13:31:38.546Z,78.15
2022-11-16T13:34:09.034Z,78.27
2022-11-16T13:36:45.369Z,78.67
2022-11-16T13:39:21.794Z,78.49
2022-11-16T13:41:51.175Z,78.86
2022-11-16T13:44:28.074Z,78.89
2022-11-16T13:46:57.569Z,78.55
2022-11-16T13:49:31.951Z,79.05
2022-11-16T13:52:22.139Z,79.04
2022-11-16T13:54:53.659Z,79.26
2022-11-16T13:57:25.028Z,79.34
2022-11-16T14:00:12.151Z,79.19
2022-11-16T14:02:41.160Z,79.07
2022-11-16T14:05:17.627Z,78.64
2022-11-16T14:07:50.144Z,79.24
2022-11-16T14:10:55.518Z,79.37
2022-11-16T14:13:39.743Z,79.76
2022-11-16T14:16:47.163Z,79.31
2022-11-16T14:19:53.038Z,79.06
2022-11-16T14:22:46.244Z,79.54
2022-11-16T14:25:30.657Z,79.24
2022-11-16T14:28:07.595Z,79.27
2022-11-16T14:30:44.363Z,79.22
2022-11-16T14:33:16.403Z,79.77
2022-11-16T14:35:52.839Z,79.99
2022-11-16T14:38:28.975Z,80.74
2022-11-16T14:40:59.829Z,81.45
2022-11-16T14:43:30.546Z,81.73
2022-11-16T14:46:01.355Z,81.57
2022-11-16T14:48:32.213Z,81.86
2022-11-16T14:51:09.375Z,81.73
2022-11-16T14:53:39.783Z,81.96
2022-11-16T14:56:12.653Z,82.15
2022-11-16T14:58:52.060Z,82.41
2022-11-16T15:01:22.353Z,82.35
2022-11-16T15:03:56.563Z,82.41
2022-11-16T15:06:32.907Z,81.75
2022-11-16T15:09:03.692Z,81.95
2022-11-16T15:11:52.018Z,81.87
2022-11-16T15:14:21.625Z,81.20
2022-11-16T15:16:51.202Z,81.25
2022-11-16T15:19:19.456Z,81.21
2022-11-16T15:21:54.825Z,81.07
2022-11-16T15:24:30.656Z,81.06
2022-11-16T15:27:04.823Z,80.88
2022-11-16T15:29:32.517Z,81.33
2022-11-16T15:32:00.812Z,81.51
2022-11-16T15:34:28.816Z,81.23
2022-11-16T15:36:56.811Z,81.53
2022-11-16T15:39:25.638Z,81.84
2022-11-16T15:42:02.125Z,81.58
2022-11-16T15:44:32.967Z,81.94
2022-11-16T15:47:01.118Z,81.83
2022-11-16T15:49:31.472Z,81.74
2022-11-16T15:51:59.979Z,81.51
2022-11-16T15:54:29.143Z,81.80
2022-11-16T15:56:58.506Z,81.86
2022-11-16T15:59:29.019Z,82.12
2022-11-16T16:02:20.855Z,81.81
2022-11-16T16:04:48.580Z,82.58
2022-11-16T16:07:40.384Z,82.35
2022-11-16T16:10:23.928Z,82.12
2022-11-16T16:12:52.792Z,82.25
2022-11-16T16:15:22.490Z,82.83
2022-11-16T16:17:52.388Z,82.68
2022-11-16T16:20:21.763Z,82.33
2022-11-16T16:22:49.733Z,82.19
2022-11-16T16:25:29.287Z,82.39
2022-11-16T16:27:57.048Z,82.81
2022-11-16T16:30:24.920Z,82.85
2022-11-16T16:32:57.309Z,82.53
2022-11-16T16:35:25.661Z,82.49
2022-11-16T16:37:58.620Z,82.42
2022-11-16T16:40:26.645Z,82.43
2022-11-16T16:42:56.528Z,82.26
2022-11-16T16:45:34.918Z,82.19
2022-11-16T16:48:04.098Z,82.00
2022-11-16T16:50:35.686Z,82.18
2022-11-16T16:53:08.571Z,82.24
2022-11-16T16:55:39.471Z,82.20
2022-11-16T16:58:07.744Z,82.05
2022-11-16T17:00:36.081Z,82.25
2022-11-16T17:03:06.414Z,82.15
2022-11-16T17:05:35.303Z,81.82
2022-11-16T17:08:03.060Z,82.00
2022-11-16T17:10:33.027Z,81.80
2022-11-16T17:13:03.439Z,82.19
2022-11-16T17:15:31.358Z,81.91
2022-11-16T17:18:00.344Z,82.15
2022-11-16T17:20:29.413Z,82.38
2022-11-16T17:22:58.036Z,82.06
2022-11-16T17:25:26.870Z,82.19
2022-11-16T17:27:54.682Z,82.23
2022-11-16T17:30:22.490Z,82.05
2022-11-16T17:32:50.691Z,81.83
2022-11-16T17:35:18.639Z,82.27
2022-11-16T17:37:48.046Z,82.15
2022-11-16T17:40:18.273Z,82.35
2022-11-16T17:42:46.146Z,82.19
2022-11-16T17:45:13.818Z,81.96
2022-11-16T17:47:41.781Z,82.41
2022-11-16T17:50:10.442Z,82.17
2022-11-16T17:52:38.544Z,82.04
2022-11-16T17:55:11.151Z,82.23
2022-11-16T17:57:38.807Z,82.48
2022-11-16T18:00:07.875Z,82.81
2022-11-16T18:02:36.457Z,82.70
2022-11-16T18:05:12.188Z,82.84
2022-11-16T18:07:41.466Z,82.41
2022-11-16T18:10:16.310Z,82.54
2022-11-16T18:12:47.036Z,82.03
2022-11-16T18:15:28.087Z,82.33
2022-11-16T18:17:57.658Z,82.47
2022-11-16T18:20:27.813Z,82.59
2022-11-16T18:22:55.678Z,82.49
2022-11-16T18:25:25.922Z,82.38
2022-11-16T18:27:54.339Z,82.30
2022-11-16T18:30:22.408Z,82.25
2022-11-16T18:32:50.922Z,82.34
2022-11-16T18:35:18.862Z,82.54
2022-11-16T18:37:46.703Z,82.54
2022-11-16T18:40:16.939Z,82.44
2022-11-16T18:42:46.202Z,82.40
2022-11-16T18:45:13.912Z,82.37
2022-11-16T18:47:42.029Z,82.35
2022-11-16T18:50:19.035Z,82.35
2022-11-16T18:52:49.756Z,82.46
2022-11-16T18:55:17.514Z,82.46
2022-11-16T18:57:46.942Z,81.94
2022-11-16T19:00:16.191Z,81.96
2022-11-16T19:02:45.071Z,81.76
2022-11-16T19:05:17.987Z,82.15
2022-11-16T19:07:47.293Z,82.67
2022-11-16T19:10:15.304Z,82.95
2022-11-16T19:12:46.539Z,82.85
2022-11-16T19:15:14.462Z,82.64
2022-11-16T19:17:59.562Z,82.55
2022-11-16T19:20:33.283Z,82.32
2022-11-16T19:23:02.216Z,82.33
2022-11-16T19:25:29.981Z,82.57
2022-11-16T19:27:59.381Z,82.87
2022-11-16T19:30:27.063Z,82.89
2022-11-16T19:32:58.066Z,82.79
2022-11-16T19:35:31.198Z,82.84
2022-11-16T19:37:59.774Z,82.93
2022-11-16T19:40:27.452Z,83.29
2022-11-16T19:42:55.893Z,83.09
2022-11-16T19:45:25.046Z,83.01
2022-11-16T19:47:52.743Z,83.34
2022-11-16T19:50:21.392Z,83.17
2022-11-16T19:52:49.068Z,83.40
2022-11-16T19:55:16.819Z,83.49
2022-11-16T19:57:45.499Z,83.40
2022-11-16T20:00:14.199Z,83.39
2022-11-16T20:02:43.866Z,83.21
2022-11-16T20:05:12.835Z,83.22
2022-11-16T20:07:41.562Z,83.05
2022-11-16T20:10:10.062Z,83.08
2022-11-16T20:12:37.931Z,83.19
2022-11-16T20:15:07.951Z,83.09
2022-11-16T20:17:35.680Z,83.07
2022-11-16T20:20:19.293Z,83.16
2022-11-16T20:22:48.923Z,83.34
2022-11-16T20:25:18.689Z,83.46
2022-11-16T20:27:46.762Z,83.08
2022-11-16T20:30:14.979Z,83.04
2022-11-16T20:32:42.953Z,82.74
2022-11-16T20:35:17.746Z,82.99
2022-11-16T20:37:47.609Z,82.61
2022-11-16T20:40:15.871Z,82.99
2022-11-16T20:42:43.995Z,83.13
2022-11-16T20:45:12.586Z,83.15
2022-11-16T20:47:40.405Z,83.05
2022-11-16T20:50:08.566Z,83.06
2022-11-16T20:52:43.081Z,82.69
2022-11-16T20:55:13.294Z,83.07
2022-11-16T20:57:41.556Z,82.77
2022-11-16T21:00:10.726Z,83.08
2022-11-16T21:02:38.871Z,83.04
2022-11-16T21:05:07.835Z,82.91
2022-11-16T21:07:38.428Z,83.19
2022-11-16T21:10:19.322Z,83.13
2022-11-16T21:13:04.993Z,83.22
2022-11-16T21:15:34.552Z,83.59
2022-11-16T21:18:02.693Z,83.40
2022-11-16T21:20:31.215Z,83.64
2022-11-16T21:23:00.935Z,83.87
2022-11-16T21:25:29.770Z,83.66
2022-11-16T21:27:57.467Z,83.71
2022-11-16T21:30:25.096Z,83.83
2022-11-16T21:32:53.019Z,83.77
2022-11-16T21:35:20.878Z,83.90
2022-11-16T21:37:50.908Z,83.75
2022-11-16T21:40:22.286Z,83.72
2022-11-16T21:42:52.516Z,83.85
2022-11-16T21:45:23.010Z,83.99
2022-11-16T21:47:53.526Z,84.14
2022-11-16T21:50:31.507Z,83.98
2022-11-16T21:52:59.802Z,84.17
2022-11-16T21:55:29.219Z,84.05
2022-11-16T21:57:57.231Z,84.26
2022-11-16T22:00:25.275Z,84.35
2022-11-16T22:02:57.397Z,84.27
2022-11-16T22:05:42.529Z,84.33
2022-11-16T22:08:12.558Z,84.38
2022-11-16T22:10:41.761Z,84.27
2022-11-16T22:13:09.442Z,84.01
2022-11-16T22:15:37.710Z,83.92
2022-11-16T22:18:05.836Z,84.10
2022-11-16T22:20:33.730Z,84.30
2022-11-16T22:23:01.489Z,84.01
2022-11-16T22:25:29.206Z,83.78
2022-11-16T22:28:19.667Z,83.90
2022-11-16T22:30:51.930Z,83.94
2022-11-16T22:33:20.432Z,83.52
2022-11-16T22:35:48.438Z,83.74
2022-11-16T22:38:16.627Z,83.59
2022-11-16T22:40:49.930Z,83.38
2022-11-16T22:43:19.388Z,83.32
2022-11-16T22:45:47.294Z,83.55
2022-11-16T22:48:15.398Z,83.61
2022-11-16T22:50:43.452Z,84.01
2022-11-16T22:53:11.554Z,84.05
2022-11-16T22:55:39.837Z,84.41
2022-11-16T22:58:07.615Z,84.12
2022-11-16T23:00:41.828Z,83.95
2022-11-16T23:03:10.318Z,84.18
2022-11-16T23:05:38.222Z,84.06
2022-11-16T23:08:06.217Z,83.92
2022-11-16T23:10:54.054Z,83.90
2022-11-16T23:13:39.084Z,83.79
2022-11-16T23:16:08.937Z,83.96
2022-11-16T23:18:36.909Z,84.15
2022-11-16T23:21:22.729Z,84.18
2022-11-16T23:24:19.496Z,83.96
2022-11-16T23:27:04.815Z,83.98
2022-11-16T23:29:32.769Z,83.79
2022-11-16T23:32:01.946Z,83.80
2022-11-16T23:34:29.717Z,83.90
2022-11-16T23:37:03.133Z,83.87
2022-11-16T23:39:31.405Z,83.80
2022-11-16T23:42:17.078Z,83.63
2022-11-16T23:44:44.893Z,83.69
2022-11-16T23:47:13.929Z,83.60
2022-11-16T23:49:41.712Z,83.56
2022-11-16T23:52:09.433Z,83.75
2022-11-16T23:54:37.269Z,83.87
2022-11-16T23:57:05.043Z,83.87
2022-11-16T23:59:32.907Z,83.97
